UTTT/TAS METAR and TAF weather

Enter ICAO airport designator
Station Type Date Time Source
UTTT METAR 2022/01/26 20:30 UTC NOAA

UTTT 262030Z 06006KT CAVOK 01/M11 Q1025 R08R/CLRD70 NOSIG


Station Type Date Time Source
UTTT Decoded METAR 2022/01/26 20:30 UTC NOAA

Tashkent, Uzbekistan (UTTT) 41-16N 069-16E 488M
Jan 26, 2022 - 03:30 PM EST / 2022.01.26 2030 UTC
Wind: from the ENE (060 degrees) at 7 MPH (6 KT):0
Visibility: greater than 7 mile(s):0
Temperature: 33 F (1 C)
Windchill: 26 F (-3 C):1
Dew Point: 12 F (-11 C)
Relative Humidity: 40%
Pressure (altimeter): 30.27 in. Hg (1025 hPa)
ob: UTTT 262030Z 06006KT CAVOK 01/M11 Q1025 R08R/CLRD70 NOSIG
cycle: 20

Station Type Date Time Source
UTTT TAF 2022/01/26 18:15 UTC NOAA

TAF COR TAF COR UTTT 261700Z 2618/2718 08008KT 3000 BR SCT007
TEMPO 2618/2704 VRB02KT 0200 FZFG VV002

Example: see airport list